Lawrenceburg, Indiana
Current Conditions -  °F | °C
As of 8:52 PM on Monday 20 Oct 2014 (Local Time) from KCVG Reporting Station
Scattered Clouds Scattered Clouds  
Wind Chill: 58°   Ceiling: Unl
Heat Index: 58°   Visibility: 10mi
Dew Point: 50°   Wind: 7mph
Humidity: 75%   Direction: 210°SSW
Pressure: 29.89"   Gusts: NA
Location:  39.09°N, 84.85°W
Report Text: KCVG 210052Z 21006KT 10SM SCT060 14/10 A2989 RMK AO2 SLP119 T01440100
Loading
Personal Weather Stations






























Interactive Weather Map
Tropical Storm Tracking
New forecast layout! Learn more

10-Day Weather Forecast

Advertisements
Track Severe Weather on mobile